Tiempo atmosférico en la estación meteorológica de Navalvillar De Ibor, Cáceres (923 m.)



Fecha
DESCASC
Temp. máxima en grados centígrados (hora)
DESCASC
Temp. mínima en grados centígrados (hora)
DESCASC
Temp. media en grados centígrados
DESCASC
Racha de viento máxima en m/sg (hora)
DESCASC
Velocidad máxima media en intervalos de 10 minutos(hora)
DESCASC
Precipitaciones diarias en mm
DESCASC
Precipitaciones de 00:00 a 06:00 en mm
DESCASC
Precipitaciones de 06:00 a 12:00 en mm
DESCASC
Precipitaciones de 12:00 a 18:00 en mm
DESCASC
Precipitaciones de 18:00 a 24:00 en mm
DESCASC
22-04-2019 16.7 (16:20) 5.2 (07:30) 11 11.11 (23:40) 3.33 (23:40) 0 0 0 0 0
21-04-2019 13.7 (16:00) 6.3 (06:50) 10 13.33 (10:00) 3.61 (16:30) 0 0 0 0 0
20-04-2019 17 (18:10) 7.5 (00:10) 12.3 15 (08:40) 5.28 (08:40) 7 6.6 0.4 0 0
19-04-2019 11.9 (14:50) 5 (07:50) 8.4 10.28 (20:10) 3.61 (17:40) 6 0.2 0 5.2 0.6
18-04-2019 12.2 (14:30) 5.8 (00:00) 9 5.28 (00:40) 2.78 (14:30) 7.8 0.8 0 6 1
17-04-2019 17 (16:00) 8.2 (00:00) 12.6 10.83 (19:50) 3.89 (21:00) 4.2 0 0 0 4.2
16-04-2019 19.2 (17:40) 5.8 (00:00) 12.5 6.39 (17:10) 2.5 (15:30) 0 0 0 0 0
15-04-2019 19.5 (14:50) 9.9 (00:00) 14.7 12.78 (16:10) 4.72 (16:30) 0 0 0 0 0
14-04-2019 19.7 (17:30) 9.4 (00:00) 14.6 6.67 (15:50) 3.06 (16:20) 0 0 0 0 0
13-04-2019 18.9 (17:10) 7.1 (00:00) 13 7.22 (18:30) 3.61 (16:20) 0 0 0 0 0
12-04-2019 17 (18:30) 6.1 (00:00) 11.5 7.5 (15:50) 3.06 (12:40) 0 0 0 0 0
11-04-2019 15.4 (18:10) 4.6 (00:00) 10 7.78 (17:40) 3.06 (15:40) 0 0 0 0 0
10-04-2019 12.9 (19:10) 3.6 (00:00) 8.2 11.11 (15:40) 5 (16:20) 0 0 0 0 0
09-04-2019 10.3 (17:50) 5 (00:00) 7.7 13.33 (12:40) 5 (11:10) 7.8 0 1.2 6.6 0
08-04-2019 13.3 (17:10) 6.1 (00:00) 9.7 11.39 (13:20) 5 (07:20) 7.4 2.8 4.6 0 0
07-04-2019 8.3 (21:10) 3.2 (00:00) 5.8 9.17 (23:10) 3.61 (04:00) 9 4 0.4 0 4.6
06-04-2019 5.3 (15:30) 2.2 (00:00) 3.8 13.33 (16:00) 5 (09:30) 6 0 2.8 3.2 0
05-04-2019 8 (17:10) 2.5 (00:00) 5.3 11.39 (04:10) 4.72 (04:30) 13.2 7.6 3.4 0.8 1.4
04-04-2019 13.3 (17:00) 1 (00:00) 7.2 9.44 (23:20) 3.89 (18:40) 0.2 0 0 0 0.2
03-04-2019 13.6 (16:00) 5.3 (00:00) 9.5 12.5 (17:30) 4.72 (16:20) 0 0 0 0 0
02-04-2019 17 (17:00) 7 (00:00) 12 8.61 (23:20) 3.61 (16:00) 0 0 0 0 0
01-04-2019 13.1 (19:20) 5.9 (00:00) 9.5 6.39 (19:50) 3.89 (19:50) 5.2 0 0 5.2 0
31-03-2019 16.8 (16:00) 7.9 (00:00) 12.3 8.06 (16:50) 3.89 (17:00) 0 0 0 0 0
30-03-2019 17.5 (18:00) 4.5 (00:00) 11 8.89 (15:50) 3.33 (15:00) 0 0 0 0 0
29-03-2019 16.9 (17:10) 7.2 (00:00) 12 10 (02:30) 6.11 (03:00) 0 0 0 0 0
28-03-2019 17.9 (15:30) 7.9 (00:00) 12.9 8.33 (01:00) 5 (01:00) 0 0 0 0 0
27-03-2019 16.4 (16:40) 4.9 (00:00) 10.6 8.61 (00:50) 3.61 (15:20) 0 0 0 0 0

Gráficas

Temp. máximas Temp. mínimas Temp. medias Precipitaciones Rachas de viento máximas Velocidades máximas media en intervalos de 10 minutos

Datos horarios

Fecha y hora oficial Temperatura (ºC) Velocidad del viento (km/h) Dirección del viento Racha (km/h) Dirección de racha Precipitación (mm) Presión (hPa) Tendencia (hPa) Humedad (%)
2019-04-25 23:00:00 6.6 15 Sudoeste 36 Oeste 0 -- -- 80
2019-04-25 22:00:00 6.7 14 Oeste 31 Oeste 0 -- -- 79
2019-04-25 21:00:00 7.8 14 Oeste 38 Oeste 0 -- -- 71
2019-04-25 20:00:00 8.4 8 Oeste 39 Sudoeste 0 -- -- 77
2019-04-25 19:00:00 9 12 Sudoeste 35 Oeste 0 -- -- 72
2019-04-25 18:00:00 9.3 13 Oeste 33 Noroeste 0 -- -- 74
2019-04-25 17:00:00 8.5 13 Oeste 39 Oeste 0.2 -- -- 78
2019-04-25 16:00:00 7.6 10 Oeste 36 Oeste 0.8 -- -- 87
2019-04-25 15:00:00 5.9 12 Oeste 38 Oeste 2.4 -- -- 90
2019-04-25 14:00:00 7.4 9 Oeste 33 Oeste 0.8 -- -- 90
2019-04-25 13:00:00 7.2 12 Sudoeste 36 Sudoeste 0 -- -- 79
2019-04-25 12:00:00 7.1 12 Oeste 47 Oeste 0 -- -- 79
2019-04-25 11:00:00 6.2 19 Oeste 45 Oeste 0.2 -- -- 80
2019-04-25 10:00:00 5.8 15 Oeste 40 Sudoeste 0 -- -- 88
2019-04-25 09:00:00 5.5 18 Sudoeste 56 Sudoeste 0 -- -- 88
2019-04-25 08:00:00 5.3 14 Oeste 41 Oeste 0 -- -- 90
2019-04-25 07:00:00 5.3 19 Sudoeste 48 Oeste 0 -- -- 90
2019-04-25 06:00:00 5.4 16 Oeste 44 Sur 1 -- -- 95
2019-04-25 05:00:00 6.3 21 Oeste 54 Sur 0 -- -- 88
2019-04-25 04:00:00 6.3 20 Sudoeste 49 Oeste 0 -- -- 91
2019-04-25 03:00:00 6.4 19 Sudoeste 53 Oeste 0 -- -- 89
2019-04-25 02:00:00 6.8 18 Oeste 48 Oeste 1.4 -- -- 94
2019-04-25 01:00:00 7.5 19 Sudoeste 55 Oeste 8 -- -- 95
2019-04-25 00:00:00 9.8 19 Sudoeste 75 Sur 1.8 -- -- 95
2019-04-24 23:00:00 9.5 22 Oeste 72 Oeste 1.2 -- -- 93
2019-04-24 22:00:00 9.6 21 Sudoeste 61 Oeste 1.6 -- -- 90
2019-04-24 21:00:00 9.6 23 Oeste 66 Oeste 0.6 -- -- 89
2019-04-24 20:00:00 10 27 Oeste 77 Noroeste 1 -- -- 89
2019-04-24 19:00:00 9.7 20 Oeste 69 Sudoeste 3.2 -- -- 94
2019-04-24 18:00:00 10.5 24 Sudoeste 95 Oeste 3.6 -- -- 94
2019-04-24 17:00:00 10.4 23 Oeste 51 Oeste 6.8 -- -- 94
2019-04-24 16:00:00 10.3 18 Oeste 55 Sudoeste 3.2 -- -- 93
2019-04-24 15:00:00 10.5 22 Oeste 65 Sur 1.2 -- -- 91
2019-04-24 14:00:00 10.1 19 Oeste 65 Oeste 0.8 -- -- 92
2019-04-24 13:00:00 9.2 24 Oeste -- -- -- -- -- 93
2019-04-24 12:00:00 -- -- -- -- -- -- -- -- --
2019-04-24 11:00:00 -- -- -- -- -- -- -- -- --
2019-04-24 10:00:00 -- -- -- -- -- -- -- -- --
2019-04-24 09:00:00 -- -- -- -- -- -- -- -- --
2019-04-24 08:00:00 -- -- -- -- -- -- -- -- --
2019-04-24 07:00:00 -- -- -- -- -- -- -- -- --
2019-04-24 06:00:00 -- -- -- -- -- -- -- -- --
2019-04-24 05:00:00 -- -- -- -- -- -- -- -- --
2019-04-24 04:00:00 -- -- -- -- -- -- -- -- --
2019-04-24 03:00:00 -- -- -- -- -- -- -- -- --
2019-04-24 02:00:00 -- -- -- -- -- -- -- -- --
2019-04-24 01:00:00 -- -- -- -- -- -- -- -- --
2019-04-24 00:00:00 -- -- -- -- -- -- -- -- --
2019-04-23 23:00:00 -- -- -- -- -- -- -- -- --
2019-04-23 22:00:00 -- -- -- -- -- -- -- -- --
2019-04-23 21:00:00 -- -- -- -- -- -- -- -- --
2019-04-23 20:00:00 -- -- -- -- -- -- -- -- --
2019-04-23 19:00:00 6.8 9 Oeste 39 Sudoeste 0.6 -- -- 78
2019-04-23 18:00:00 5.7 7 Oeste 34 Sudoeste 0.2 -- -- 83
2019-04-23 17:00:00 6.4 9 Noroeste 30 Oeste 0.2 -- -- 90
2019-04-23 16:00:00 4 11 Oeste 37 Oeste 1.4 -- -- 91
2019-04-23 15:00:00 5 14 Oeste 37 Noroeste 2.2 -- -- 87
2019-04-23 14:00:00 5.9 8 Sudoeste 22 Sudoeste 0.2 -- -- 86
2019-04-23 13:00:00 5.6 8 Sudeste 21 Oeste 1 -- -- 84
2019-04-23 12:00:00 6.5 10 Oeste 22 Oeste 0 -- -- 76
2019-04-23 11:00:00 5.7 9 Oeste 29 Oeste 0 -- -- 82
2019-04-23 10:00:00 3.9 6 Sudoeste 18 Sudoeste 0 -- -- 94
2019-04-23 09:00:00 3.8 9 Oeste 22 Noroeste 0 -- -- 93
2019-04-23 08:00:00 4.1 5 Oeste 25 Oeste 0.8 -- -- 97
2019-04-23 07:00:00 5.4 10 Oeste 30 Noroeste 1 -- -- 92
2019-04-23 06:00:00 5.7 11 Oeste 30 Norte 2 -- -- 96
2019-04-23 05:00:00 7.9 10 Noroeste 36 Oeste 2.4 -- -- 90
2019-04-23 04:00:00 9.1 12 Sudoeste 44 Sur 0 -- -- 80
2019-04-23 03:00:00 10 14 Oeste 42 Sudoeste 0 -- -- 75
2019-04-23 02:00:00 10.8 12 Oeste 35 Sudoeste 0 -- -- 66
2019-04-23 01:00:00 11.3 11 Oeste 38 Oeste 0 -- -- 74
2019-04-23 00:00:00 12 10 Oeste 40 Oeste 0 -- -- 68
2019-04-22 23:00:00 12.2 9 Oeste 29 Sudoeste 0 -- -- 65
2019-04-22 22:00:00 12.7 8 Oeste 33 Oeste 0 -- -- 62
2019-04-22 21:00:00 13.6 10 Oeste 30 Oeste 0 -- -- 58
2019-04-22 20:00:00 14.7 8 Sudoeste 29 Oeste 0 -- -- 53
2019-04-22 19:00:00 15.5 8 Oeste 23 Sur 0 -- -- 53
2019-04-22 18:00:00 16.3 8 Oeste 20 Noroeste 0 -- -- 53
2019-04-22 17:00:00 16.1 8 Oeste 27 Noroeste 0 -- -- 54
2019-04-22 16:00:00 16 7 Noroeste 22 Noroeste 0 -- -- 54
2019-04-22 15:00:00 15.7 7 Oeste 26 Noroeste 0 -- -- 51
2019-04-22 14:00:00 15.9 6 Norte 20 Sudoeste 0 -- -- 54
2019-04-22 13:00:00 14.8 8 Noroeste 19 Oeste 0 -- -- 55
2019-04-22 12:00:00 13.1 5 Oeste 13 Oeste 0 -- -- 61
2019-04-22 11:00:00 11.8 5 Noroeste 14 Noroeste 0 -- -- 67
2019-04-22 10:00:00 10.6 3 Norte 9 Noroeste 0 -- -- 68
2019-04-22 09:00:00 7 0 Calma 6 Sur 0 -- -- 87
2019-04-22 08:00:00 5.3 4 Sur 6 Sudeste 0 -- -- 90
2019-04-22 07:00:00 5.5 4 Sur 5 Sur 0 -- -- 88
2019-04-22 06:00:00 5.7 3 Sudeste 8 Sudeste 0 -- -- 88
2019-04-22 05:00:00 6.1 3 Sudeste 5 Sur 0 -- -- 87
2019-04-22 04:00:00 6.5 0 Calma 9 Sudeste 0 -- -- 82
2019-04-22 03:00:00 7.4 4 Este 9 Este 0 -- -- 77
2019-04-22 02:00:00 8.1 3 Noroeste 9 Sudeste 0 -- -- 76
2019-04-22 01:00:00 8.6 0 Calma 12 Nordeste 0 -- -- 77
2019-04-22 00:00:00 9 4 Nordeste 17 Nordeste 0 -- -- 73
2019-04-21 23:00:00 9.2 4 Sur 12 Sudeste 0 -- -- 76
2019-04-21 22:00:00 9.5 4 Nordeste 17 Este 0 -- -- 76
2019-04-21 21:00:00 9.6 3 Oeste 15 Nordeste 0 -- -- 74
2019-04-21 20:00:00 10.1 5 Nordeste 17 Sudeste 0 -- -- 72
2019-04-21 19:00:00 11 7 Norte 18 Norte 0 -- -- 68
2019-04-21 18:00:00 11.2 6 Norte 22 Norte 0 -- -- 66
2019-04-21 17:00:00 12.5 10 Norte 33 Nordeste 0 -- -- 62
2019-04-21 16:00:00 13.7 8 Este 22 Este 0 -- -- 60
2019-04-21 15:00:00 12.8 8 Nordeste 27 Nordeste 0 -- -- 59
2019-04-21 14:00:00 11.7 8 Nordeste 24 Este 0 -- -- 62
2019-04-21 13:00:00 11.6 8 Este 28 Norte 0 -- -- 64
2019-04-21 12:00:00 11.2 10 Nordeste 42 Norte 0 -- -- 70
2019-04-21 11:00:00 10 12 Nordeste 38 Nordeste 0 -- -- 70
2019-04-21 10:00:00 8.5 13 Nordeste 48 Norte 0 -- -- 75
2019-04-21 09:00:00 7.2 10 Sudeste 27 Este 0 -- -- 81
2019-04-21 08:00:00 6.8 10 Sudeste 31 Sur 0 -- -- 84
2019-04-21 07:00:00 6.3 7 Nordeste 21 Nordeste 0 -- -- 85
2019-04-21 06:00:00 6.6 9 Nordeste 31 Nordeste 0 -- -- 84
2019-04-21 05:00:00 7.2 9 Sudeste 30 Este 0 -- -- 78
2019-04-21 04:00:00 6.9 8 Este 26 Sudeste 0 -- -- 81
2019-04-21 03:00:00 7.3 9 Este 23 Este 0 -- -- 83
2019-04-21 02:00:00 8.3 6 Sudeste 24 Nordeste 0 -- -- 81
2019-04-21 01:00:00 9.2 6 Sur 20 Este 0 -- -- 72
2019-04-21 00:00:00 10.2 8 Sudeste 22 Este 0 -- -- 73
2019-04-20 23:00:00 11.6 7 Este 28 Sudeste 0 -- -- 65
2019-04-20 22:00:00 12 9 Sudeste 24 Sudeste 0 -- -- 66
2019-04-20 21:00:00 13.1 9 Sudeste 25 Sudeste 0 -- -- 61
2019-04-20 20:00:00 14.1 9 Sudeste 30 Este 0 -- -- 58
2019-04-20 19:00:00 15.7 8 Sudeste 28 Este 0 -- -- 52
2019-04-20 18:00:00 16.5 10 Norte 27 Sudeste 0 -- -- 54
2019-04-20 17:00:00 15.5 9 Nordeste 34 Este 0 -- -- 54
2019-04-20 16:00:00 15 10 Este 33 Este 0 -- -- 56
2019-04-20 15:00:00 15.1 8 Nordeste 30 Nordeste 0 -- -- 58
2019-04-20 14:00:00 14.1 9 Nordeste 32 Nordeste 0 -- -- 64
2019-04-20 13:00:00 12.1 11 Sudeste 36 Sudeste 0 -- -- 68
2019-04-20 12:00:00 10.8 16 Sudeste 36 Sudeste 0 -- -- 72
2019-04-20 11:00:00 10.3 13 Sudeste 35 Sur 0 -- -- 73
2019-04-20 10:00:00 9.8 14 Sudeste 45 Sudeste 0 -- -- 76
2019-04-20 09:00:00 9.5 19 Sudeste 54 Sudeste 0 -- -- 76
2019-04-20 08:00:00 8.9 16 Sudeste 46 Sudeste 0.2 -- -- 79
2019-04-20 07:00:00 8.3 14 Sudeste 40 Sudeste 0.2 -- -- 85
2019-04-20 06:00:00 7.9 13 Sudeste 32 Sur 1.6 -- -- 90
2019-04-20 05:00:00 8 10 Nordeste 31 Este 2.2 -- -- 92
2019-04-20 04:00:00 8.2 12 Este 40 Nordeste 2.8 -- -- 91
2019-04-20 03:00:00 8 12 Sudeste 31 Nordeste 0 -- -- 86
2019-04-20 02:00:00 7.7 8 Sudeste 27 Este 0 -- -- 87
2019-04-20 01:00:00 7.7 8 Este 26 Nordeste 0 -- -- 86
2019-04-20 00:00:00 7.6 4 Norte 25 Nordeste 0 -- -- 90
2019-04-19 23:00:00 8 6 Sudeste 29 Nordeste 0.2 -- -- 85
2019-04-19 22:00:00 8 8 Sudeste 28 Nordeste 0.2 -- -- 86
2019-04-19 21:00:00 8.2 9 Este 37 Sudeste 0 -- -- 85
2019-04-19 20:00:00 8.4 12 Sudeste 30 Nordeste 0 -- -- 83
2019-04-19 19:00:00 8.5 9 Sur 28 Sudeste 0.2 -- -- 92
2019-04-19 18:00:00 8.5 9 Nordeste 34 Norte 2.8 -- -- 95
2019-04-19 17:00:00 8.5 8 Nordeste 19 Este 1.6 -- -- 94
2019-04-19 16:00:00 9.6 9 Norte 21 Nordeste 0.2 -- -- 88
2019-04-19 15:00:00 11.7 8 Norte 18 Nordeste 0 -- -- 81
2019-04-19 14:00:00 10.3 3 Nordeste 12 Nordeste 0.6 -- -- 82
2019-04-19 13:00:00 10.4 4 Este 13 Sudeste 0 -- -- 80
2019-04-19 12:00:00 10.1 4 Sudeste 13 Sur 0 -- -- 80
2019-04-19 11:00:00 10.1 5 Sudeste 15 Este 0 -- -- 82
2019-04-19 10:00:00 10.2 6 Norte 17 Norte 0 -- -- 82
2019-04-19 09:00:00 7.3 3 Nordeste 13 Sudeste 0 -- -- 93
2019-04-19 08:00:00 5.5 6 Sudeste 14 Este 0 -- -- 97
2019-04-19 07:00:00 5.3 4 Sur 9 Sur 0 -- -- 96
2019-04-19 06:00:00 6 4 Sudeste 5 Sudeste 0 -- -- 95
2019-04-19 05:00:00 6.7 2 Sur 4 Sudoeste 0 -- -- 96
2019-04-19 04:00:00 6.1 3 Sur 6 Sudoeste 0 -- -- 97
2019-04-19 03:00:00 6.3 3 Sur 5 Sudeste 0 -- -- 93
2019-04-19 02:00:00 7 3 Sudoeste 5 Sudoeste 0 -- -- 93
2019-04-19 01:00:00 7.2 0 Calma 5 Sur 0.2 -- -- 94
2019-04-19 00:00:00 7.2 0 Calma 4 Sudoeste 0 -- -- 93
2019-04-18 23:00:00 7.2 0 Calma 6 Sudeste 0 -- -- 91
2019-04-18 22:00:00 7.3 3 Sudeste 9 Sudeste 0 -- -- 88
2019-04-18 21:00:00 6.8 4 Sur 9 Sudoeste 0 -- -- 92
2019-04-18 20:00:00 7.8 4 Sudoeste 10 Sudoeste 0 -- -- 88
2019-04-18 19:00:00 8 5 Noroeste 12 Noroeste 1 -- -- 95
2019-04-18 18:00:00 8.3 6 Sudoeste 14 Sur 2.6 -- -- 87
2019-04-18 17:00:00 8.7 4 Sudeste 13 Oeste 1.6 -- -- 88
2019-04-18 16:00:00 9.5 5 Sudoeste 10 Noroeste 1.6 -- -- 82
2019-04-18 15:00:00 10.7 6 Norte 19 Norte 0.2 -- -- 79
2019-04-18 14:00:00 11.7 8 Norte 16 Norte 0 -- -- 75
2019-04-18 13:00:00 10.5 3 Sudoeste 12 Oeste 0 -- -- 81
2019-04-18 12:00:00 10.3 3 Nordeste 9 Nordeste 0 -- -- 79
2019-04-18 11:00:00 9.1 4 Noroeste 8 Noroeste 0 -- -- 92
2019-04-18 10:00:00 8.2 2 Nordeste 6 Noroeste 0 -- -- 90
2019-04-18 09:00:00 7.1 3 Norte 5 Sudoeste 0 -- -- 96
2019-04-18 08:00:00 6.1 3 Sur 8 Sudoeste 0 -- -- 95
2019-04-18 07:00:00 6.2 4 Sudoeste 9 Sur 0 -- -- 96
2019-04-18 06:00:00 6.9 3 Sudoeste 6 Oeste 0 -- -- 96
2019-04-18 05:00:00 7.5 4 Sudeste 9 Sudeste 0 -- -- 93
2019-04-18 04:00:00 7.8 3 Nordeste 13 Norte 0 -- -- 92
2019-04-18 03:00:00 7.8 6 Norte 15 Nordeste 0 -- -- 90
2019-04-18 02:00:00 7.9 6 Norte 16 Norte 0.2 -- -- 94
2019-04-18 01:00:00 8.2 4 Noroeste 19 Norte 0.6 -- -- 95
2019-04-18 00:00:00 8.2 5 Norte 13 Noroeste 0.6 -- -- 94
2019-04-17 23:00:00 8.7 8 Norte 18 Norte 0.2 -- -- 85
2019-04-17 22:00:00 8.6 4 Oeste 26 Sudoeste 1.6 -- -- 92
2019-04-17 21:00:00 10.1 14 Noroeste 31 Noroeste 0.8 -- -- 92
2019-04-17 20:00:00 12 8 Norte 39 Sudoeste 0.8 -- -- 86
2019-04-17 19:00:00 13.3 5 Oeste 21 Noroeste 0.2 -- -- 79
2019-04-17 18:00:00 15.1 5 Norte 31 Nordeste 0 -- -- 58
2019-04-17 17:00:00 15.9 8 Norte 28 Sudoeste 0 -- -- 56
2019-04-17 16:00:00 17 9 Norte 19 Nordeste 0 -- -- 51
2019-04-17 15:00:00 16.2 8 Norte 18 Este 0 -- -- 52
2019-04-17 14:00:00 15.3 5 Noroeste 17 Nordeste 0 -- -- 52
2019-04-17 13:00:00 15.3 6 Norte 18 Nordeste 0 -- -- 50
2019-04-17 12:00:00 15.5 8 Noroeste 22 Nordeste 0 -- -- 47
2019-04-17 11:00:00 14.2 9 Norte 18 Nordeste 0 -- -- 54
2019-04-17 10:00:00 13.5 8 Norte 19 Nordeste 0 -- -- 53
2019-04-17 09:00:00 11.3 8 Nordeste 22 Este 0 -- -- 58
2019-04-17 08:00:00 10.8 5 Sur 23 Este 0 -- -- 58
2019-04-17 07:00:00 11.2 6 Este 28 Sudeste 0 -- -- 62
2019-04-17 06:00:00 11.7 7 Este 23 Este 0 -- -- 65
2019-04-17 05:00:00 12.1 4 Este 21 Nordeste 0 -- -- 67
2019-04-17 04:00:00 12.9 8 Norte 20 Norte 0 -- -- 62
2019-04-17 03:00:00 12.6 5 Noroeste 13 Noroeste 0 -- -- 60
2019-04-17 02:00:00 11.6 4 Sur 15 Norte 0 -- -- 56
2019-04-17 01:00:00 12.6 5 Sudeste 15 Norte 0 -- -- 55
2019-04-17 00:00:00 12.5 5 Sur 9 Sur 0 -- -- 54
2019-04-16 23:00:00 15.5 6 Noroeste 15 Este 0 -- -- 47
2019-04-16 22:00:00 15.3 4 Sudeste 10 Sudeste 0 -- -- 46
2019-04-16 21:00:00 15.7 4 Sudeste 11 Nordeste 0 -- -- 47
2019-04-16 20:00:00 17.4 5 Nordeste 17 Nordeste 0 -- -- 45
2019-04-16 19:00:00 18.6 9 Este 21 Este 0 -- -- 42
2019-04-16 18:00:00 18.8 6 Sudeste 23 Este 0 -- -- 40
2019-04-16 17:00:00 18.5 8 Este 21 Nordeste 0 -- -- 39
2019-04-16 16:00:00 17.9 8 Norte 21 Este 0 -- -- 41
2019-04-16 15:00:00 17.4 5 Noroeste 17 Nordeste 0 -- -- 37
2019-04-16 14:00:00 16.2 6 Nordeste 16 Sur 0 -- -- 41
2019-04-16 13:00:00 15.6 6 Sudeste 18 Norte 0 -- -- 49
2019-04-16 12:00:00 15.2 6 Sur 17 Nordeste 0 -- -- 52
2019-04-16 11:00:00 13.9 6 Nordeste 14 Nordeste 0 -- -- 53
2019-04-16 10:00:00 11.8 4 Norte 8 Noroeste 0 -- -- 61
2019-04-16 09:00:00 8.2 4 Sudeste 9 Sudeste 0 -- -- 75
2019-04-16 08:00:00 6 4 Sudeste 6 Sudeste 0 -- -- 84
2019-04-16 07:00:00 6 4 Sur 8 Sur 0 -- -- 85
2019-04-16 06:00:00 6.3 4 Sudoeste 8 Sudoeste 0 -- -- 84
2019-04-16 05:00:00 6.6 3 Sur 9 Sudoeste 0 -- -- 85
2019-04-16 04:00:00 8.4 4 Sudoeste 16 Sudoeste 0 -- -- 81
2019-04-16 03:00:00 8.9 7 Sudoeste 15 Sudoeste 0 -- -- 77
2019-04-16 02:00:00 8.8 6 Sudoeste 16 Sudoeste 0 -- -- 76
2019-04-16 01:00:00 9.2 8 Sudoeste 19 Oeste 0 -- -- 75
2019-04-16 00:00:00 9.9 8 Sudoeste 21 Oeste 0 -- -- 75
2019-04-15 23:00:00 10.9 9 Oeste 28 Oeste 0 -- -- 77
2019-04-15 22:00:00 10.9 10 Sudoeste 27 Sudoeste 0 -- -- 79
2019-04-15 21:00:00 11 5 Oeste 22 Oeste 0 -- -- 80
2019-04-15 20:00:00 12 9 Noroeste 28 Noroeste 0 -- -- 74
2019-04-15 19:00:00 11.3 9 Oeste 35 Noroeste 0 -- -- 80
2019-04-15 18:00:00 13.7 12 Noroeste 35 Noroeste 0 -- -- 72
2019-04-15 17:00:00 17.8 14 Oeste 46 Sudoeste 0 -- -- 42
2019-04-15 16:00:00 18.7 15 Noroeste 32 Oeste 0 -- -- 44
2019-04-15 15:00:00 18.9 8 Oeste 40 Oeste 0 -- -- 54
2019-04-15 14:00:00 19.2 10 Oeste 36 Oeste 0 -- -- 45
2019-04-15 13:00:00 17.5 10 Oeste 23 Oeste 0 -- -- 62
2019-04-15 12:00:00 16.1 9 Noroeste 26 Oeste 0 -- -- 70
2019-04-15 11:00:00 16.6 7 Noroeste 16 Nordeste 0 -- -- 67
2019-04-15 10:00:00 15.1 4 Nordeste 11 Sudeste 0 -- -- 74
2019-04-15 09:00:00 14.2 4 Este 16 Este 0 -- -- 77
2019-04-15 08:00:00 14.1 9 Sudeste 22 Este 0 -- -- 77
2019-04-15 07:00:00 13.7 7 Sudeste 19 Sudeste 0 -- -- 77
2019-04-15 06:00:00 14.3 10 Sudeste 28 Este 0 -- -- 74
2019-04-15 05:00:00 14.6 12 Sudeste 22 Sudeste 0 -- -- 72
2019-04-15 04:00:00 14.6 7 Sudeste 18 Sudeste 0 -- -- 75
2019-04-15 03:00:00 15 9 Sudeste 19 Sudeste 0 -- -- 71
2019-04-15 02:00:00 13.8 8 Sudeste 14 Sudeste 0 -- -- 73
2019-04-15 01:00:00 13.2 3 Sur 5 Sur 0 -- -- 74
2019-04-15 00:00:00 13.5 4 Sudeste 8 Norte 0 -- -- 75
2019-04-14 23:00:00 14.9 3 Este 11 Sudoeste 0 -- -- 71
2019-04-14 22:00:00 15.7 5 Sur 13 Sudoeste 0 -- -- 68
2019-04-14 21:00:00 16.1 6 Oeste 14 Oeste 0 -- -- 66
2019-04-14 20:00:00 17.2 5 Oeste 14 Oeste 0 -- -- 63
2019-04-14 19:00:00 18.2 8 Oeste 21 Oeste 0 -- -- 61
2019-04-14 18:00:00 19.3 10 Noroeste 23 Oeste 0 -- -- 57
2019-04-14 17:00:00 18.1 8 Noroeste 24 Oeste 0 -- -- 61
2019-04-14 16:00:00 19 10 Noroeste 24 Noroeste 0 -- -- 58
2019-04-14 15:00:00 17.7 7 Oeste 21 Noroeste 0 -- -- 63
2019-04-14 14:00:00 17.4 8 Noroeste 21 Noroeste 0 -- -- 63
2019-04-14 13:00:00 16.2 9 Noroeste 15 Norte 0 -- -- 71
2019-04-14 12:00:00 15.8 7 Oeste 15 Oeste 0 -- -- 72
2019-04-14 11:00:00 14.9 9 Noroeste 16 Noroeste 0 -- -- 74
2019-04-14 10:00:00 13 4 Sudoeste 12 Oeste 0 -- -- 84
2019-04-14 09:00:00 10.4 0 Calma 6 Sudoeste 0 -- -- 95
2019-04-14 08:00:00 9.4 3 Sudeste 9 Nordeste 0 -- -- 96
2019-04-14 07:00:00 9.6 4 Oeste 15 Oeste 0 -- -- 96
2019-04-14 06:00:00 10.9 4 Oeste 18 Oeste 0 -- -- 91
2019-04-14 05:00:00 11.4 6 Oeste 17 Sudoeste 0 -- -- 87
2019-04-14 04:00:00 10.4 0 Calma 10 Oeste 0 -- -- 91
2019-04-14 03:00:00 11.3 6 Oeste 18 Sudoeste 0 -- -- 88
2019-04-14 02:00:00 12.1 7 Sudoeste 18 Sudoeste 0 -- -- 82
2019-04-14 01:00:00 12.4 9 Sudoeste 19 Sudoeste 0 -- -- 72
2019-04-14 00:00:00 12.6 7 Sudoeste 15 Sudoeste 0 -- -- 65
2019-04-13 23:00:00 13.1 7 Sudoeste 19 Sudoeste 0 -- -- 53
2019-04-13 22:00:00 13.8 5 Sudoeste 24 Sudoeste 0 -- -- 48
2019-04-13 21:00:00 15.1 7 Sudoeste 18 Oeste 0 -- -- 45
2019-04-13 20:00:00 17.3 7 Oeste 23 Noroeste 0 -- -- 42
2019-04-13 19:00:00 18.8 9 Noroeste 26 Oeste 0 -- -- 38
2019-04-13 18:00:00 18.9 10 Oeste 23 Noroeste 0 -- -- 36
2019-04-13 17:00:00 18.7 11 Noroeste 23 Noroeste 0 -- -- 39
2019-04-13 16:00:00 18.6 10 Noroeste 24 Noroeste 0 -- -- 39
2019-04-13 15:00:00 17.9 8 Noroeste 22 Oeste 0 -- -- 40
2019-04-13 14:00:00 17 10 Noroeste 21 Oeste 0 -- -- 43
2019-04-13 13:00:00 16.6 6 Noroeste 19 Noroeste 0 -- -- 42
2019-04-13 12:00:00 15.3 8 Noroeste 16 Noroeste 0 -- -- 43
2019-04-13 11:00:00 13.8 7 Noroeste 12 Sudoeste 0 -- -- 46
2019-04-13 10:00:00 12.6 6 Noroeste 9 Oeste 0 -- -- 47
2019-04-13 09:00:00 9.6 3 Oeste 6 Oeste 0 -- -- 62
2019-04-13 08:00:00 8.9 3 Sudoeste 13 Sudoeste 0 -- -- 62
2019-04-13 07:00:00 9.1 3 Sudoeste 14 Sudoeste 0 -- -- 59
2019-04-13 06:00:00 8.2 5 Sudoeste 10 Sudoeste 0 -- -- 62
2019-04-13 05:00:00 8 4 Sudoeste 13 Sudoeste 0 -- -- 63
2019-04-13 04:00:00 7.2 3 Sur 6 Sur 0 -- -- 69
2019-04-13 03:00:00 7.5 3 Sur 7 Sudoeste 0 -- -- 67
2019-04-13 02:00:00 9.4 3 Sudoeste 14 Oeste 0 -- -- 60
2019-04-13 01:00:00 9.2 5 Sudoeste 12 Sudoeste 0 -- -- 57
2019-04-13 00:00:00 8.9 5 Sudoeste 11 Sudoeste 0 -- -- 59
2019-04-12 23:00:00 9.3 4 Sudoeste 9 Oeste 0 -- -- 56
2019-04-12 22:00:00 9.7 4 Sudoeste 8 Sudoeste 0 -- -- 54
2019-04-12 21:00:00 12.6 5 Sudoeste 14 Oeste 0 -- -- 46
2019-04-12 20:00:00 15.2 6 Oeste 20 Oeste 0 -- -- 40
2019-04-12 19:00:00 16.7 7 Noroeste 21 Oeste 0 -- -- 34
2019-04-12 18:00:00 16.8 10 Noroeste 21 Noroeste 0 -- -- 33
2019-04-12 17:00:00 16.6 8 Oeste 23 Noroeste 0 -- -- 37
2019-04-12 16:00:00 15.9 7 Noroeste 27 Noroeste 0 -- -- 40
2019-04-12 15:00:00 15.4 6 Oeste 21 Noroeste 0 -- -- 39
2019-04-12 14:00:00 14.4 7 Oeste 19 Noroeste 0 -- -- 42
2019-04-12 13:00:00 13.7 8 Noroeste 21 Noroeste 0 -- -- 41
2019-04-12 12:00:00 13.2 8 Noroeste 17 Noroeste 0 -- -- 44
2019-04-12 11:00:00 12.3 7 Noroeste 14 Noroeste 0 -- -- 48
2019-04-12 10:00:00 11.1 6 Norte 13 Norte 0 -- -- 45
2019-04-12 09:00:00 7.1 5 Sudeste 12 Sur 0 -- -- 54
2019-04-12 08:00:00 6.8 6 Sur 18 Sudeste 0 -- -- 58
2019-04-12 07:00:00 7.8 8 Sur 20 Sur 0 -- -- 51
2019-04-12 06:00:00 7.7 8 Sur 19 Sur 0 -- -- 51
2019-04-12 05:00:00 7.6 8 Sur 15 Sur 0 -- -- 52
2019-04-12 04:00:00 7.9 8 Sur 17 Sudeste 0 -- -- 51
2019-04-12 03:00:00 8 6 Sur 13 Este 0 -- -- 51
2019-04-12 02:00:00 8.2 6 Sur 15 Sudeste 0 -- -- 53
2019-04-12 01:00:00 8.5 5 Sur 14 Este 0 -- -- 53
2019-04-12 00:00:00 8.8 5 Sudoeste 14 Este 0 -- -- 55
2019-04-11 23:00:00 9.2 4 Nordeste 16 Nordeste 0 -- -- 53
2019-04-11 22:00:00 9.6 4 Sur 6 Sur 0 -- -- 59
2019-04-11 21:00:00 10.3 3 Sudeste 9 Nordeste 0 -- -- 56
2019-04-11 20:00:00 12.1 8 Noroeste 15 Noroeste 0 -- -- 48
2019-04-11 19:00:00 13.9 8 Noroeste 20 Noroeste 0 -- -- 39
2019-04-11 18:00:00 15.1 5 Nordeste 28 Oeste 0 -- -- 36
2019-04-11 17:00:00 14.8 10 Noroeste 22 Noroeste 0 -- -- 39
2019-04-11 16:00:00 13.9 10 Noroeste 23 Noroeste 0 -- -- 50
2019-04-11 15:00:00 13.5 9 Noroeste 22 Oeste 0 -- -- 47
2019-04-11 14:00:00 13.1 7 Oeste 20 Norte 0 -- -- 48
2019-04-11 13:00:00 12.2 6 Oeste 18 Noroeste 0 -- -- 51
2019-04-11 12:00:00 12.6 6 Noroeste 15 Oeste 0 -- -- 53
2019-04-11 11:00:00 11.2 7 Noroeste 12 Noroeste 0 -- -- 56
2019-04-11 10:00:00 9.6 4 Noroeste 6 Noroeste 0 -- -- 61
2019-04-11 09:00:00 5.2 3 Sudeste 8 Sur 0 -- -- 81
2019-04-11 08:00:00 5.9 8 Sur 15 Sur 0 -- -- 73
2019-04-11 07:00:00 5.2 5 Sur 10 Sudeste 0 -- -- 75
2019-04-11 06:00:00 5.7 5 Sudeste 12 Este 0 -- -- 74
2019-04-11 05:00:00 6 4 Sudeste 10 Sudeste 0 -- -- 72
2019-04-11 04:00:00 5.7 3 Sur 10 Este 0 -- -- 71
2019-04-11 03:00:00 6.3 4 Sudeste 11 Nordeste 0 -- -- 69
2019-04-11 02:00:00 5.7 3 Sudeste 8 Sudeste 0 -- -- 72
2019-04-11 01:00:00 4.6 3 Sudeste 14 Sudoeste 0 -- -- 85
2019-04-11 00:00:00 5.9 5 Sudoeste 19 Norte 0 -- -- 77
2019-04-10 23:00:00 6.6 5 Oeste 21 Noroeste 0 -- -- 73
2019-04-10 22:00:00 7 3 Sur 19 Norte 0 -- -- 76
2019-04-10 21:00:00 8 12 Norte 34 Norte 0 -- -- 72
2019-04-10 20:00:00 11.4 12 Noroeste 36 Noroeste 0 -- -- 53
2019-04-10 19:00:00 12.8 14 Noroeste 33 Noroeste 0 -- -- 52
2019-04-10 18:00:00 10.9 11 Oeste 34 Oeste 0 -- -- 60
2019-04-10 17:00:00 11.2 13 Oeste 38 Noroeste 0 -- -- 59
2019-04-10 16:00:00 11.7 14 Noroeste 40 Oeste 0 -- -- 61
2019-04-10 15:00:00 10.4 14 Noroeste 36 Oeste 0 -- -- 63
2019-04-10 14:00:00 11.3 16 Noroeste 37 Noroeste 0 -- -- 62
2019-04-10 13:00:00 9.6 15 Noroeste 31 Oeste 0 -- -- 68
2019-04-10 12:00:00 8.4 9 Oeste 27 Oeste 0 -- -- 76
2019-04-10 11:00:00 7.6 13 Oeste 32 Oeste 0 -- -- 80
2019-04-10 10:00:00 6.2 13 Oeste 31 Noroeste 0 -- -- 87
2019-04-10 09:00:00 4 8 Oeste 27 Noroeste 0 -- -- 91
2019-04-10 08:00:00 3.6 9 Sudoeste 33 Noroeste 0 -- -- 96
2019-04-10 07:00:00 3.8 8 Sudoeste 23 Sudoeste 0 -- -- 98
2019-04-10 06:00:00 4 8 Sudoeste 26 Oeste 0 -- -- 98
2019-04-10 05:00:00 4 9 Oeste 30 Oeste 0 -- -- 95
2019-04-10 04:00:00 4.3 5 Oeste 21 Oeste 0 -- -- 92
2019-04-10 03:00:00 4.2 5 Oeste 17 Oeste 0 -- -- 92
2019-04-10 02:00:00 5 7 Oeste 28 Oeste 0 -- -- 90
2019-04-10 01:00:00 5.8 11 Oeste 30 Noroeste 0 -- -- 90
2019-04-10 00:00:00 6.3 11 Oeste 31 Noroeste 0 -- -- 88
2019-04-09 23:00:00 6.6 10 Oeste 32 Oeste 0 -- -- 85
2019-04-09 22:00:00 7.2 13 Noroeste 34 Noroeste 0 -- -- 82
2019-04-09 21:00:00 8.1 12 Oeste 31 Noroeste 0 -- -- 76
2019-04-09 20:00:00 9.2 10 Sudoeste 29 Oeste 0 -- -- 72
2019-04-09 19:00:00 9.6 11 Oeste 27 Oeste 0 -- -- 74
2019-04-09 18:00:00 10.1 9 Oeste 35 Oeste 0 -- -- 73
2019-04-09 17:00:00 9.2 10 Oeste 31 Oeste 0 -- -- 79
2019-04-09 16:00:00 9.1 15 Oeste 30 Oeste 0 -- -- 87
2019-04-09 15:00:00 7.2 11 Noroeste 28 Noroeste 2 -- -- 99
2019-04-09 14:00:00 6.1 7 Oeste 38 Sudoeste 1.2 -- -- 95
2019-04-09 13:00:00 6.2 12 Oeste 48 Oeste 3.4 -- -- 91
2019-04-09 12:00:00 6.2 15 Oeste 47 Sudoeste 0.2 -- -- 89
2019-04-09 11:00:00 5.5 17 Oeste 42 Sudoeste 0.8 -- -- 92
2019-04-09 10:00:00 5.7 13 Oeste 32 Oeste 0 -- -- 89
2019-04-09 09:00:00 5.1 10 Oeste 42 Sudoeste 0.2 -- -- 94
2019-04-09 08:00:00 5.3 12 Oeste 31 Noroeste 0 -- -- 91
2019-04-09 07:00:00 5.2 9 Oeste 35 Oeste 0 -- -- 90
2019-04-09 06:00:00 5.5 10 Oeste 27 Sudoeste 0 -- -- 90
2019-04-09 05:00:00 5.4 9 Oeste 26 Noroeste 0 -- -- 92
2019-04-09 04:00:00 5.4 10 Oeste 26 Sudoeste 0 -- -- 92
2019-04-09 03:00:00 5.5 10 Oeste 31 Noroeste 0 -- -- 90
2019-04-09 02:00:00 5.8 12 Oeste 29 Oeste 0 -- -- 90
2019-04-09 01:00:00 5.8 7 Oeste 25 Sudoeste 0 -- -- 88
2019-04-09 00:00:00 6.1 11 Oeste 24 Noroeste 0 -- -- 87
2019-04-08 23:00:00 6.5 9 Oeste 29 Oeste 0 -- -- 85
2019-04-08 22:00:00 7.3 9 Oeste 33 Oeste 0 -- -- 84
2019-04-08 21:00:00 8.1 9 Sudoeste 29 Noroeste 0 -- -- 76
2019-04-08 20:00:00 9.4 10 Oeste 26 Oeste 0 -- -- 69
2019-04-08 19:00:00 11.5 9 Oeste 32 Noroeste 0 -- -- 52
2019-04-08 18:00:00 11.9 11 Oeste 26 Oeste 0 -- -- 56
2019-04-08 17:00:00 13.1 10 Oeste 31 Noroeste 0 -- -- 56
2019-04-08 16:00:00 12.2 12 Noroeste 33 Noroeste 0 -- -- 58
2019-04-08 15:00:00 10.6 9 Oeste 30 Oeste 0 -- -- 71
2019-04-08 14:00:00 9.7 9 Oeste 41 Sudoeste 0 -- -- 73
2019-04-08 13:00:00 8.4 11 Oeste 28 Sudoeste 0 -- -- 83
2019-04-08 12:00:00 8.1 10 Noroeste 24 Oeste 0.2 -- -- 89
2019-04-08 11:00:00 7.7 6 Oeste 20 Sudoeste 0 -- -- 95
2019-04-08 10:00:00 7.4 8 Oeste 22 Noroeste 0 -- -- 95
2019-04-08 09:00:00 7.1 9 Oeste 24 Sudoeste 0.4 -- -- 96
2019-04-08 08:00:00 7.4 7 Sudoeste 39 Sudoeste 2.6 -- -- 96
2019-04-08 07:00:00 7.9 12 Oeste 40 Sur 1.4 -- -- 96
2019-04-08 06:00:00 7.6 10 Sur 34 Sur 0.8 -- -- 93
2019-04-08 05:00:00 7.5 8 Norte 28 Noroeste 0.6 -- -- 93
2019-04-08 04:00:00 7.9 10 Sudoeste 33 Oeste 1 -- -- 94
2019-04-08 03:00:00 8.2 9 Oeste 30 Sudeste 0.4 -- -- 94
2019-04-08 02:00:00 8.3 9 Oeste 30 Sudoeste 0 -- -- 95
2019-04-08 01:00:00 8.1 9 Oeste 26 Oeste 0 -- -- 95
2019-04-08 00:00:00 7.9 10 Oeste 33 Oeste 0.2 -- -- 95
2019-04-07 23:00:00 8.3 9 Oeste 32 Noroeste 1.8 -- -- 99
2019-04-07 22:00:00 8.2 6 Oeste 32 Sudoeste 1.2 -- -- 99
2019-04-07 21:00:00 8.1 13 Sudoeste 31 Oeste 0.6 -- -- 97
2019-04-07 20:00:00 8 12 Sudoeste 32 Sur 0.4 -- -- 96
2019-04-07 19:00:00 7.6 5 Nordeste 13 Nordeste 0.4 -- -- 96
2019-04-07 18:00:00 7.9 5 Nordeste 15 Este 0 -- -- 96
2019-04-07 17:00:00 7.5 5 Este 21 Oeste 0 -- -- 85
2019-04-07 16:00:00 8 8 Oeste 32 Oeste 0 -- -- 80
2019-04-07 15:00:00 7.8 8 Sudoeste 21 Oeste 0 -- -- 82
2019-04-07 14:00:00 7.4 10 Sudoeste 28 Sudoeste 0 -- -- 81
2019-04-07 13:00:00 6.4 10 Oeste 23 Sudoeste 0 -- -- 87
2019-04-07 12:00:00 5.5 9 Oeste 24 Oeste 0 -- -- 93
2019-04-07 11:00:00 4.6 6 Oeste 22 Sudoeste 0 -- -- 96
2019-04-07 10:00:00 4 10 Oeste 25 Noroeste 0 -- -- 98
2019-04-07 09:00:00 3.7 7 Oeste 24 Oeste 0.2 -- -- 100
2019-04-07 08:00:00 3.5 11 Oeste 28 Oeste 0 -- -- 100
2019-04-07 07:00:00 3.6 10 Oeste 31 Sudoeste 0.2 -- -- 100
2019-04-07 06:00:00 3.5 9 Oeste 31 Oeste 0.2 -- -- 99
2019-04-07 05:00:00 3.5 10 Oeste 29 Noroeste 1 -- -- 100
2019-04-07 04:00:00 3.6 13 Oeste 32 Oeste 0.4 -- -- 100
2019-04-07 03:00:00 3.5 11 Oeste 30 Oeste 0.6 -- -- 99
2019-04-07 02:00:00 3.4 9 Oeste 31 Oeste 1.2 -- -- 98
2019-04-07 01:00:00 3.3 7 Oeste 30 Oeste 0.6 -- -- 97
2019-04-07 00:00:00 3.5 11 Sudoeste 44 Oeste 0 -- -- 92
2019-04-06 23:00:00 3.7 13 Oeste 36 Oeste 0 -- -- 91
2019-04-06 22:00:00 4.2 11 Sudoeste 34 Oeste 0 -- -- 90
2019-04-06 21:00:00 4.4 11 Sudoeste 40 Oeste 0 -- -- 86
2019-04-06 20:00:00 4.7 15 Oeste 33 Oeste 0 -- -- 85
2019-04-06 19:00:00 4.8 13 Oeste 42 Noroeste 0 -- -- 86
2019-04-06 18:00:00 4.3 15 Oeste 39 Sudoeste 0 -- -- 86
2019-04-06 17:00:00 3 14 Sudoeste 41 Sudoeste 1.8 -- -- 93
2019-04-06 16:00:00 4.5 13 Oeste 48 Oeste 0 -- -- 89
2019-04-06 15:00:00 5 12 Oeste 36 Sudoeste 0 -- -- 86
2019-04-06 14:00:00 4 13 Oeste 35 Oeste 1.2 -- -- 96
2019-04-06 13:00:00 4.4 12 Oeste 42 Noroeste 0.2 -- -- 87
2019-04-06 12:00:00 3.4 15 Oeste 38 Oeste 0 -- -- 96
2019-04-06 11:00:00 2.6 16 Sudoeste 42 Oeste 1.2 -- -- 98
2019-04-06 10:00:00 2.5 13 Sudoeste 46 Sudoeste 1.2 -- -- 95
2019-04-06 09:00:00 2.9 13 Oeste 46 Sudoeste 0.2 -- -- 92
2019-04-06 08:00:00 2.7 11 Oeste 44 Sudoeste 0.2 -- -- 98
2019-04-06 07:00:00 2.5 10 Sudoeste 35 Oeste 0 -- -- 100
2019-04-06 06:00:00 2.5 11 Oeste 31 Oeste 0 -- -- 99
2019-04-06 05:00:00 2.5 8 Oeste 30 Oeste 0 -- -- 94
2019-04-06 04:00:00 2.4 10 Oeste 35 Noroeste 0 -- -- 94
2019-04-06 03:00:00 2.5 10 Oeste 26 Sudoeste 0 -- -- 93
2019-04-06 02:00:00 2.4 11 Oeste 30 Oeste 0 -- -- 94
2019-04-06 01:00:00 2.6 10 Oeste 28 Oeste 0 -- -- 94
2019-04-06 00:00:00 2.6 12 Oeste 35 Oeste 0 -- -- 95
2019-04-05 23:00:00 3.2 10 Oeste 29 Noroeste 0.2 -- -- 94
2019-04-05 22:00:00 3.3 11 Oeste 35 Oeste 0 -- -- 92
2019-04-05 21:00:00 3.1 11 Oeste 28 Oeste 0 -- -- 92
2019-04-05 20:00:00 2.7 6 Oeste 35 Noroeste 1.2 -- -- 94
2019-04-05 19:00:00 6 9 Oeste 32 Oeste 0 -- -- 67
2019-04-05 18:00:00 6.2 13 Oeste 35 Noroeste 0 -- -- 64
2019-04-05 17:00:00 7.3 12 Oeste 39 Oeste 0 -- -- 70
2019-04-05 16:00:00 5 9 Oeste 37 Sudoeste 0.6 -- -- 86
2019-04-05 15:00:00 4.8 13 Oeste 31 Sudoeste 0 -- -- 81
2019-04-05 14:00:00 3.4 10 Oeste 32 Oeste 0 -- -- 94
2019-04-05 13:00:00 3.4 9 Noroeste 21 Noroeste 0.2 -- -- 97
2019-04-05 12:00:00 2.5 8 Noroeste 30 Oeste 1 -- -- 96
2019-04-05 11:00:00 4.5 10 Oeste 37 Oeste 0 -- -- 83
2019-04-05 10:00:00 4 9 Sudoeste 23 Sudoeste 0.8 -- -- 90
2019-04-05 09:00:00 3.6 8 Sudoeste 29 Oeste 1 -- -- 91
2019-04-05 08:00:00 3.9 3 Norte 34 Sur 0 -- -- 90
2019-04-05 07:00:00 3.8 10 Sudoeste 30 Oeste 0.6 -- -- 93
2019-04-05 06:00:00 3.4 7 Sur 28 Sur 2.6 -- -- 90
2019-04-05 05:00:00 4.2 9 Sudoeste 41 Oeste 0.6 -- -- 90
2019-04-05 04:00:00 3.7 11 Nordeste 32 Este 1 -- -- 94
2019-04-05 03:00:00 3.7 8 Noroeste 30 Oeste 1.4 -- -- 90
2019-04-05 02:00:00 3.8 6 Sudoeste 18 Sur 0.6 -- -- 90
2019-04-05 01:00:00 3.8 4 Noroeste 22 Sudoeste 1.4 -- -- 90
2019-04-05 00:00:00 5.2 6 Sudoeste 34 Oeste 0.2 -- -- 83
2019-04-04 23:00:00 7.3 7 Sudoeste 28 Noroeste 0 -- -- 59
2019-04-04 22:00:00 8.1 7 Oeste 32 Oeste 0 -- -- 48
2019-04-04 21:00:00 8.3 7 Sudoeste 23 Sudoeste 0 -- -- 40
2019-04-04 20:00:00 10.6 9 Oeste 28 Oeste 0 -- -- 40
2019-04-04 19:00:00 12.3 10 Noroeste 26 Oeste 0 -- -- 36
2019-04-04 18:00:00 12.6 10 Oeste 27 Oeste 0 -- -- 34
2019-04-04 17:00:00 13.3 11 Noroeste 24 Oeste 0 -- -- 36
2019-04-04 16:00:00 12.8 12 Noroeste 26 Oeste 0 -- -- 39
2019-04-04 15:00:00 12 8 Noroeste 22 Oeste 0 -- -- 39
2019-04-04 14:00:00 11.5 7 Sur 18 Sur 0 -- -- 43
2019-04-04 13:00:00 10.4 10 Noroeste 22 Norte 0 -- -- 42
2019-04-04 12:00:00 9.2 5 Oeste 13 Sur 0 -- -- 45
2019-04-04 11:00:00 7.8 6 Noroeste 10 Noroeste 0 -- -- 51
2019-04-04 10:00:00 6.3 6 Norte 12 Nordeste 0 -- -- 49
2019-04-04 09:00:00 2.7 3 Nordeste 8 Nordeste 0 -- -- 59
2019-04-04 08:00:00 1 3 Sur 5 Sudeste 0 -- -- 68
2019-04-04 07:00:00 2.4 3 Sudeste 10 Este 0 -- -- 64
2019-04-04 06:00:00 3.4 4 Este 20 Sudeste 0 -- -- 58
2019-04-04 05:00:00 3.7 8 Sudeste 16 Sudeste 0 -- -- 58
2019-04-04 04:00:00 2.4 2 Sudeste 6 Sur 0 -- -- 66
2019-04-04 03:00:00 1.9 2 Oeste 8 Oeste 0 -- -- 69
2019-04-04 02:00:00 2.4 3 Sudoeste 6 Sudoeste 0 -- -- 67
2019-04-04 01:00:00 3.8 4 Sudoeste 15 Noroeste 0 -- -- 62
2019-04-04 00:00:00 5.3 8 Sudoeste 22 Oeste 0 -- -- 53
2019-04-03 23:00:00 6.1 9 Sudoeste 23 Oeste 0 -- -- 52
2019-04-03 22:00:00 7 9 Oeste 27 Sudoeste 0 -- -- 51
2019-04-03 21:00:00 7.9 9 Oeste 34 Noroeste 0 -- -- 48
2019-04-03 20:00:00 9.9 14 Noroeste 33 Noroeste 0 -- -- 44
2019-04-03 19:00:00 12.1 16 Oeste 34 Noroeste 0 -- -- 40
2019-04-03 18:00:00 13.2 13 Oeste 45 Oeste 0 -- -- 39
2019-04-03 17:00:00 13.6 14 Oeste 36 Noroeste 0 -- -- 38
2019-04-03 16:00:00 13.6 11 Oeste 38 Oeste 0 -- -- 49
2019-04-03 15:00:00 12.7 13 Sudoeste 41 Oeste 0 -- -- 54
2019-04-03 14:00:00 11.8 13 Sudoeste 31 Oeste 0 -- -- 55
2019-04-03 13:00:00 11.4 12 Oeste 30 Oeste 0 -- -- 52
2019-04-03 12:00:00 11.1 11 Noroeste 24 Noroeste 0 -- -- 55
2019-04-03 11:00:00 10.6 9 Noroeste 21 Oeste 0 -- -- 57
2019-04-03 10:00:00 9.4 5 Oeste 13 Oeste 0 -- -- 58
2019-04-03 09:00:00 7.3 6 Oeste 21 Sudoeste 0 -- -- 77
2019-04-03 08:00:00 7.8 8 Sudoeste 22 Oeste 0 -- -- 75
2019-04-03 07:00:00 8 8 Oeste 23 Oeste 0 -- -- 76
2019-04-03 06:00:00 9.2 4 Sur 19 Sur 0 -- -- 64
2019-04-03 05:00:00 8.2 5 Sudoeste 14 Sudoeste 0 -- -- 69
2019-04-03 04:00:00 7.3 0 Calma 12 Oeste 0 -- -- 77
2019-04-03 03:00:00 9.1 7 Sudoeste 14 Oeste 0 -- -- 73
2019-04-03 02:00:00 9.9 6 Sudoeste 17 Oeste 0 -- -- 69
2019-04-03 01:00:00 10.5 5 Oeste 24 Oeste 0 -- -- 67
2019-04-03 00:00:00 11.2 6 Sudoeste 31 Sudoeste 0 -- -- 69
2019-04-02 23:00:00 12.2 10 Sudoeste 24 Oeste 0 -- -- 61
2019-04-02 22:00:00 12.8 9 Sudoeste 21 Sudoeste 0 -- -- 57
2019-04-02 21:00:00 12.8 7 Oeste 20 Sudoeste 0 -- -- 56
2019-04-02 20:00:00 14.2 5 Oeste 23 Oeste 0 -- -- 53
2019-04-02 19:00:00 15.9 11 Oeste 30 Noroeste 0 -- -- 48
2019-04-02 18:00:00 16.2 9 Oeste 24 Noroeste 0 -- -- 50
2019-04-02 17:00:00 17 11 Oeste 27 Noroeste 0 -- -- 51
2019-04-02 16:00:00 16.3 13 Noroeste 27 Oeste 0 -- -- 54
2019-04-02 15:00:00 14.1 9 Noroeste 22 Noroeste 0 -- -- 61
2019-04-02 14:00:00 13.9 10 Oeste 20 Noroeste 0 -- -- 62
2019-04-02 13:00:00 14 6 Oeste 19 Oeste 0 -- -- 61
2019-04-02 12:00:00 13.5 7 Noroeste 18 Oeste 0 -- -- 62
2019-04-02 11:00:00 12.2 6 Oeste 14 Oeste 0 -- -- 72
2019-04-02 10:00:00 9.7 3 Sudoeste 11 Sur 0 -- -- 77
2019-04-02 09:00:00 7.2 4 Sudoeste 10 Sudoeste 0 -- -- 89
2019-04-02 08:00:00 7.1 5 Sudoeste 11 Sudoeste 0 -- -- 92
2019-04-02 07:00:00 7.5 4 Sudoeste 10 Sudoeste 0 -- -- 91
2019-04-02 06:00:00 7.6 4 Sudoeste 9 Sudoeste 0 -- -- 92
2019-04-02 05:00:00 7.4 4 Oeste 8 Sudoeste 0 -- -- 92
2019-04-02 04:00:00 8.1 6 Sudoeste 9 Sudoeste 0 -- -- 90
2019-04-02 03:00:00 7.5 3 Sur 6 Sudoeste 0 -- -- 92
2019-04-02 02:00:00 7.4 3 Sur 6 Sur 0 -- -- 93
2019-04-02 01:00:00 8 0 Calma 9 Sudoeste 0 -- -- 91
2019-04-02 00:00:00 8.6 5 Sudoeste 12 Sudeste 0 -- -- 86
2019-04-01 23:00:00 10.2 6 Sudoeste 12 Sudoeste 0 -- -- 78
2019-04-01 22:00:00 8.5 2 Sudeste 5 Sur 0 -- -- 87
2019-04-01 21:00:00 9.7 4 Sudeste 10 Sur 0 -- -- 79
2019-04-01 20:00:00 11.4 12 Sur 23 Sudeste 0 -- -- 68
2019-04-01 19:00:00 12.6 11 Sudeste 19 Sur 0 -- -- 62
2019-04-01 18:00:00 11.7 10 Sudeste 17 Sudeste 0.2 -- -- 73
2019-04-01 17:00:00 12.1 4 Este 12 Noroeste 0 -- -- 74
2019-04-01 16:00:00 11.7 3 Oeste 9 Noroeste 0 -- -- 84
2019-04-01 15:00:00 9.6 4 Este 10 Sudoeste 1.8 -- -- 88
2019-04-01 14:00:00 9.6 8 Sudoeste 14 Sudoeste 3.2 -- -- 83
2019-04-01 13:00:00 12 4 Norte 9 Norte 0 -- -- 67
2019-04-01 12:00:00 11.6 5 Norte 11 Noroeste 0 -- -- 71
2019-04-01 11:00:00 10 5 Noroeste 10 Noroeste 0 -- -- 79
2019-04-01 10:00:00 8.9 2 Norte 6 Noroeste 0 -- -- 84
2019-04-01 09:00:00 6.5 0 Calma 5 Sur 0 -- -- 88
2019-04-01 08:00:00 5.9 3 Sur 6 Sudoeste 0 -- -- 87
2019-04-01 07:00:00 6.4 3 Sur 9 Sur 0 -- -- 82
2019-04-01 06:00:00 7.6 5 Sur 10 Sur 0 -- -- 78
2019-04-01 05:00:00 6.6 3 Sudeste 8 Este 0 -- -- 85
2019-04-01 04:00:00 7.6 0 Calma 14 Sudeste 0 -- -- 81
2019-04-01 03:00:00 7 2 Sudeste 7 Sudeste 0 -- -- 83
2019-04-01 02:00:00 7.5 3 Sudeste 12 Sudeste 0 -- -- 81
2019-04-01 01:00:00 8.7 4 Sudeste 20 Sudeste 0 -- -- 79
2019-04-01 00:00:00 8.9 10 Sudeste 21 Sur 0 -- -- 78
2019-03-31 23:00:00 9.4 8 Este 17 Sudeste 0 -- -- 75
2019-03-31 22:00:00 9.6 5 Sudeste 13 Este 0 -- -- 73
2019-03-31 21:00:00 10.2 7 Sudeste 17 Sudeste 0 -- -- 71
2019-03-31 20:00:00 11.9 6 Nordeste 19 Nordeste 0 -- -- 67
2019-03-31 19:00:00 14 9 Nordeste 23 Norte 0 -- -- 57
2019-03-31 18:00:00 14.8 10 Norte 28 Norte 0 -- -- 55
2019-03-31 17:00:00 16.1 14 Norte 29 Norte 0 -- -- 52
2019-03-31 16:00:00 16.8 13 Norte 22 Norte 0 -- -- 49
2019-03-31 15:00:00 14.4 10 Norte 22 Norte 0 -- -- 54
2019-03-31 14:00:00 12.4 6 Norte 28 Nordeste 0 -- -- 61
2019-03-31 13:00:00 14.3 11 Norte 27 Noroeste 0 -- -- 58
2019-03-31 12:00:00 12.4 13 Norte 21 Nordeste 0 -- -- 61
2019-03-31 11:00:00 11.7 2 Este 10 Norte 0 -- -- 63
2019-03-31 10:00:00 9.6 3 Nordeste 8 Nordeste 0 -- -- 66
2019-03-31 09:00:00 8.2 3 Norte 6 Noroeste 0 -- -- 69
2019-03-31 08:00:00 7.9 3 Sur 5 Sudeste 0 -- -- 70
2019-03-31 07:00:00 8.2 0 Calma 5 Oeste 0 -- -- 69
2019-03-31 06:00:00 8.7 3 Sur 7 Sur 0 -- -- 65
2019-03-31 05:00:00 10.1 2 Sudoeste 11 Sudeste 0 -- -- 60
2019-03-31 03:00:00 9.5 4 Sudeste 6 Sur 0 -- -- 59
2019-03-31 01:00:00 10 3 Sur 10 Sudeste 0 -- -- 56
2019-03-31 00:00:00 10.6 4 Sur 14 Sur 0 -- -- 53
2019-03-30 23:00:00 11.2 5 Sur 10 Sudeste 0 -- -- 48
2019-03-30 22:00:00 12 5 Sur 12 Nordeste 0 -- -- 44
2019-03-30 21:00:00 12.3 5 Sur 12 Este 0 -- -- 43
2019-03-30 20:00:00 12.9 3 Sur 18 Sudeste 0 -- -- 41
2019-03-30 19:00:00 14.8 5 Nordeste 17 Este 0 -- -- 38
2019-03-30 18:00:00 17.5 5 Nordeste 17 Nordeste 0 -- -- 34
2019-03-30 17:00:00 17 8 Nordeste 23 Nordeste 0 -- -- 36
2019-03-30 16:00:00 16.6 8 Nordeste 32 Norte 0 -- -- 35
2019-03-30 15:00:00 16.5 12 Norte 25 Noroeste 0 -- -- 32
2019-03-30 14:00:00 15.2 8 Norte 24 Nordeste 0 -- -- 39
2019-03-30 13:00:00 13.7 9 Norte 17 Norte 0 -- -- 44
2019-03-30 12:00:00 12.1 6 Nordeste 16 Norte 0 -- -- 41
2019-03-30 11:00:00 11.9 8 Norte 19 Norte 0 -- -- 50
2019-03-30 10:00:00 10.1 4 Norte 11 Norte 0 -- -- 55
2019-03-30 09:00:00 8.5 0 Calma 8 Nordeste 0 -- -- 58
2019-03-30 08:00:00 5.1 2 Sudeste 5 Sur 0 -- -- 64
2019-03-30 07:00:00 5.1 2 Sudeste 8 Sur 0 -- -- 56
2019-03-30 06:00:00 7.3 3 Norte 18 Sur 0 -- -- 46
2019-03-30 05:00:00 7.7 2 Sudeste 9 Sudeste 0 -- -- 41
2019-03-30 04:00:00 8.6 4 Sur 15 Sur 0 -- -- 35
2019-03-30 03:00:00 8 6 Sur 14 Sudeste 0 -- -- 39
2019-03-30 02:00:00 8.6 5 Sudeste 8 Sur 0 -- -- 40
2019-03-30 01:00:00 8.9 5 Sudeste 8 Sudeste 0 -- -- 40
2019-03-30 00:00:00 9.3 4 Sudeste 14 Sur 0 -- -- 41
2019-03-29 23:00:00 10.8 8 Sur 14 Sudeste 0 -- -- 35
2019-03-29 22:00:00 10.6 5 Sur 11 Sudeste 0 -- -- 37
2019-03-29 21:00:00 11 5 Sur 9 Sur 0 -- -- 37
2019-03-29 20:00:00 11.9 5 Sur 9 Sur 0 -- -- 35
2019-03-29 19:00:00 14.5 2 Nordeste 10 Sudeste 0 -- -- 30
2019-03-29 18:00:00 16.7 4 Norte 47 Este 0 -- -- 28
2019-03-29 17:00:00 16.6 6 Norte 23 Norte 0 -- -- 30
2019-03-29 16:00:00 16.5 8 Nordeste 27 Nordeste 0 -- -- 29
2019-03-29 15:00:00 15.7 8 Nordeste 22 Norte 0 -- -- 31
2019-03-29 14:00:00 14.6 12 Norte 21 Este 0 -- -- 31
2019-03-29 13:00:00 13.5 9 Este 21 Nordeste 0 -- -- 37
2019-03-29 12:00:00 13.3 11 Norte 21 Nordeste 0 -- -- 35
2019-03-29 11:00:00 13.3 9 Nordeste 20 Nordeste 0 -- -- 32
2019-03-29 10:00:00 12.3 5 Nordeste 17 Este 0 -- -- 35
2019-03-29 09:00:00 10.2 6 Sudeste 17 Este 0 -- -- 36
2019-03-29 08:00:00 7.7 5 Sur 17 Sudeste 0 -- -- 41
2019-03-29 07:00:00 7.6 6 Sur 13 Sudeste 0 -- -- 40
2019-03-29 06:00:00 7.6 5 Sur 12 Sudeste 0 -- -- 41
2019-03-29 05:00:00 9.3 8 Sur 26 Sur 0 -- -- 37
2019-03-29 04:00:00 9.7 18 Sudeste 33 Sur 0 -- -- 34
2019-03-29 03:00:00 10.4 22 Sur 36 Sudeste 0 -- -- 35
2019-03-29 02:00:00 10.6 20 Sur 34 Sur 0 -- -- 34
2019-03-29 01:00:00 11.1 12 Sur 24 Sudeste 0 -- -- 32
2019-03-29 00:00:00 11.7 8 Sudeste 21 Este 0 -- -- 31
2019-03-28 23:00:00 11.7 6 Sur 16 Este 0 -- -- 30
2019-03-28 22:00:00 11.9 5 Sur 16 Sur 0 -- -- 29
2019-03-28 21:00:00 12.3 4 Sur 17 Este 0 -- -- 29
2019-03-28 20:00:00 13 5 Este 20 Este 0 -- -- 28
2019-03-28 19:00:00 14.4 9 Nordeste 28 Norte 0 -- -- 26
2019-03-28 18:00:00 16.8 11 Norte 24 Norte 0 -- -- 25
2019-03-28 17:00:00 17.3 11 Norte 27 Norte 0 -- -- 25
2019-03-28 16:00:00 17.5 7 Nordeste 22 Norte 0 -- -- 24
2019-03-28 15:00:00 16.9 9 Nordeste 25 Nordeste 0 -- -- 27
2019-03-28 14:00:00 16.7 9 Sudeste 24 Este 0 -- -- 22
2019-03-28 13:00:00 15.9 9 Este 26 Nordeste 0 -- -- 24
2019-03-28 12:00:00 15.1 9 Este 25 Nordeste 0 -- -- 22
2019-03-28 11:00:00 14.5 9 Nordeste 27 Este 0 -- -- 17
2019-03-28 10:00:00 13.1 8 Sudeste 21 Este 0 -- -- 19
2019-03-28 09:00:00 11.9 6 Sudeste 21 Sudeste 0 -- -- 23
2019-03-28 08:00:00 9.4 7 Sudeste 22 Sudeste 0 -- -- 32
2019-03-28 07:00:00 8.9 6 Sudeste 21 Este 0 -- -- 33
2019-03-28 06:00:00 7.9 4 Sudeste 14 Sur 0 -- -- 38
2019-03-28 05:00:00 9.5 6 Sudeste 18 Sudeste 0 -- -- 33
2019-03-28 04:00:00 10.1 11 Sur 23 Sudeste 0 -- -- 35
2019-03-28 03:00:00 9.7 8 Sur 16 Sudeste 0 -- -- 33
2019-03-28 02:00:00 10.1 5 Sur 24 Sur 0 -- -- 34
2019-03-28 01:00:00 11.6 18 Sur 30 Sudeste 0 -- -- 29
2019-03-28 00:00:00 11.5 12 Sur 23 Sur 0 -- -- 31
2019-03-27 23:00:00 11.7 5 Sudeste 13 Sur 0 -- -- 30
2019-03-27 22:00:00 12.2 5 Sudeste 18 Sudeste 0 -- -- 29
2019-03-27 21:00:00 11.8 5 Sur 12 Este 0 -- -- 32
2019-03-27 20:00:00 12.4 4 Sudeste 14 Sur 0 -- -- 31
2019-03-27 19:00:00 13.7 6 Este 21 Nordeste 0 -- -- 30
2019-03-27 18:00:00 15.7 11 Norte 24 Norte 0 -- -- 27
2019-03-27 17:00:00 16.1 11 Norte 28 Norte 0 -- -- 29
2019-03-27 16:00:00 16 9 Nordeste 26 Nordeste 0 -- -- 32
2019-03-27 15:00:00 15.5 9 Norte 24 Noroeste 0 -- -- 35
2019-03-27 14:00:00 14.5 10 Norte 28 Norte 0 -- -- 41
2019-03-27 13:00:00 12.7 9 Norte 23 Nordeste 0 -- -- 45
2019-03-27 12:00:00 11.8 11 Nordeste 24 Nordeste 0 -- -- 41
2019-03-27 11:00:00 10.8 10 Norte 23 Norte 0 -- -- 42
2019-03-27 10:00:00 8.8 11 Norte 19 Norte 0 -- -- 54
2019-03-27 09:00:00 8.8 6 Este 20 Este 0 -- -- 43
2019-03-27 08:00:00 4.9 3 Sudoeste 18 Nordeste 0 -- -- 57
2019-03-27 07:00:00 6.8 5 Sur 18 Nordeste 0 -- -- 41
2019-03-27 06:00:00 7.7 5 Sur 15 Este 0 -- -- 36
2019-03-27 05:00:00 8 4 Nordeste 22 Este 0 -- -- 37
2019-03-27 04:00:00 9.1 7 Este 26 Nordeste 0 -- -- 37
2019-03-27 03:00:00 10.3 9 Nordeste 28 Nordeste 0 -- -- 37
2019-03-27 02:00:00 11.4 8 Sudeste 27 Este 0 -- -- 38
2019-03-27 01:00:00 12 10 Sudeste 31 Sudeste 0 -- -- 37
2019-03-27 00:00:00 13.1 12 Sudeste 32 Sudeste 0 -- -- 35